METAR Data
IDs: Format: Raw Decoded Include TAF

Data at: 1454 UTC 18 Aug 2019

PAFE 181256Z AUTO 35013G20KT 310V020 10SM CLR 13/M02 A2971 RMK AO2 PK WND 33032/1210 SLP071 T01331022
PAFE 180956Z AUTO 33011G24KT 300V360 10SM CLR 14/00 A2970 RMK AO2 SLP069 T01390000
PAFE 180856Z AUTO 33012G27KT 300V360 10SM CLR 14/01 A2971 RMK AO2 PK WND 32027/0853 SLP070 60001 T01440006 401560122 50008
PAFE 180656Z AUTO 33011G18KT 290V010 10SM -RA OVC080 14/03 A2971 RMK AO2 SLP070 P0001 T01390033
PAFE 180456Z AUTO 35014G24KT 320V020 10SM OVC080 13/05 A2967 RMK AO2 PK WND 04026/0434 RAE52 SLP059 P0000 T01330050
PAFE 180356Z AUTO 01011G20KT 300V040 10SM -RA OVC075 13/07 A2966 RMK AO2 SLP055 P0000 T01330072
PAFE 180256Z AUTO 34009G16KT 290V030 10SM -RA OVC075 13/11 A2967 RMK AO2 RAB0159 SLP058 P0004 60004 T01280106 58006
PAFE 180224Z AUTO 32007KT 10SM -RA FEW021 BKN035 OVC060 13/11 A2968 RMK AO2 RAB0159 P0001
PAFE 180126Z AUTO 31009G14KT 10SM BKN020 OVC043 13/11 A2968 RMK AO2 RAE01 P0000
PAFE 180056Z AUTO VRB04KT 10SM -RA SCT018 OVC038 13/11 A2968 RMK AO2 SLP063 P0000 T01330111
PAFE 180030Z AUTO VRB05KT 8SM -RA FEW018 OVC030 13/12 A2968 RMK AO2 P0000
PAFE 172244Z AUTO 28005KT 10SM BKN011 OVC015 14/13 A2970 RMK AO2 RAE23 CIG 009V014 P0000
PAFE 172056Z AUTO 12005KT 10SM BKN023 OVC060 16/13 A2972 RMK AO2 RAE13 SLP076 P0000 60000 T01560133 56011
PAFE 172051Z AUTO VRB03KT 10SM BKN023 BKN027 OVC060 15/13 A2972 RMK AO2 RAE13 P0000
PAFE 171916Z AUTO 10004KT 10SM -RA BKN029 OVC090 14/13 A2975 RMK AO2 P0000
PAFE 171856Z AUTO 10006KT 10SM -RA FEW029 BKN055 BKN090 14/13 A2975 RMK AO2 RAE08B32 SLP087 P0000 T01440128
PAFE 171556Z AUTO 13007KT 10SM OVC110 14/12 A2982 RMK AO2 SLP110 T01390117
PAFE 171456Z AUTO 08007KT 10SM OVC075 13/12 A2984 RMK AO2 SLP117 T01330117 56030
PAFE 171256Z AUTO 15004KT 10SM OVC060 14/12 A2991 RMK AO2 SLP138 T01390122
PAFE 171156Z AUTO 08003KT 10SM OVC090 14/12 A2993 RMK AO2 SLP148 T01390122 10144 20122 58026
PAFE 170956Z AUTO 07004KT 10SM OVC060 13/12 A3000 RMK AO2 SLP169 T01330122
PAFE 170356Z AUTO 00000KT 10SM OVC055 14/13 A3010 RMK AO2 SLP203 T01440128
PAFE 170256Z AUTO 00000KT 10SM OVC049 15/13 A3011 RMK AO2 SLP207 T01500128 58018